sensor_id;sensor_type;location;lat;lon;timestamp;temperature;humidity
54168;DHT22;68429;50.958;3.592;2024-02-15T00:01:51;12.70;99.90
54168;DHT22;68429;50.958;3.592;2024-02-15T00:04:17;12.70;99.90
54168;DHT22;68429;50.958;3.592;2024-02-15T00:06:44;12.80;99.90
54168;DHT22;68429;50.958;3.592;2024-02-15T00:09:13;12.80;99.90
54168;DHT22;68429;50.958;3.592;2024-02-15T00:11:38;12.80;99.90
54168;DHT22;68429;50.958;3.592;2024-02-15T00:14:05;12.80;99.90
54168;DHT22;68429;50.958;3.592;2024-02-15T00:16:34;13.00;99.90
54168;DHT22;68429;50.958;3.592;2024-02-15T00:19:04;12.90;99.90
54168;DHT22;68429;50.958;3.592;2024-02-15T00:21:30;12.90;99.90
54168;DHT22;68429;50.958;3.592;2024-02-15T00:24:16;12.80;99.90
54168;DHT22;68429;50.958;3.592;2024-02-15T00:26:44;12.80;99.90
54168;DHT22;68429;50.958;3.592;2024-02-15T00:29:10;12.70;99.90
54168;DHT22;68429;50.958;3.592;2024-02-15T00:31:36;12.70;99.90
54168;DHT22;68429;50.958;3.592;2024-02-15T00:34:06;12.80;99.90
54168;DHT22;68429;50.958;3.592;2024-02-15T00:36:34;12.90;99.90
54168;DHT22;68429;50.958;3.592;2024-02-15T00:39:00;13.00;99.90
54168;DHT22;68429;50.958;3.592;2024-02-15T00:41:26;12.90;99.90
54168;DHT22;68429;50.958;3.592;2024-02-15T00:43:53;12.90;99.90
54168;DHT22;68429;50.958;3.592;2024-02-15T00:46:19;12.90;99.90
54168;DHT22;68429;50.958;3.592;2024-02-15T00:48:45;13.00;99.90
54168;DHT22;68429;50.958;3.592;2024-02-15T00:51:16;13.00;99.90
54168;DHT22;68429;50.958;3.592;2024-02-15T00:53:44;13.10;99.90
54168;DHT22;68429;50.958;3.592;2024-02-15T00:56:10;13.10;99.90
54168;DHT22;68429;50.958;3.592;2024-02-15T00:58:37;13.00;99.90
54168;DHT22;68429;50.958;3.592;2024-02-15T01:01:03;12.90;99.90
54168;DHT22;68429;50.958;3.592;2024-02-15T01:03:29;12.90;99.90
54168;DHT22;68429;50.958;3.592;2024-02-15T01:05:55;12.90;99.90
54168;DHT22;68429;50.958;3.592;2024-02-15T01:08:20;12.90;99.90
54168;DHT22;68429;50.958;3.592;2024-02-15T01:10:46;12.90;99.90
54168;DHT22;68429;50.958;3.592;2024-02-15T01:13:21;12.80;99.90
54168;DHT22;68429;50.958;3.592;2024-02-15T01:15:47;12.90;99.90
54168;DHT22;68429;50.958;3.592;2024-02-15T01:18:15;12.80;99.90
54168;DHT22;68429;50.958;3.592;2024-02-15T01:20:41;12.90;99.90
54168;DHT22;68429;50.958;3.592;2024-02-15T01:23:07;12.90;99.90
54168;DHT22;68429;50.958;3.592;2024-02-15T01:25:33;13.00;99.90
54168;DHT22;68429;50.958;3.592;2024-02-15T01:27:59;13.00;99.90
54168;DHT22;68429;50.958;3.592;2024-02-15T01:30:30;13.00;99.90
54168;DHT22;68429;50.958;3.592;2024-02-15T01:32:58;12.90;99.90
54168;DHT22;68429;50.958;3.592;2024-02-15T01:35:27;13.00;99.90
54168;DHT22;68429;50.958;3.592;2024-02-15T01:41:33;12.80;99.90
54168;DHT22;68429;50.958;3.592;2024-02-15T01:45:02;12.90;99.90
54168;DHT22;68429;50.958;3.592;2024-02-15T01:47:57;13.00;99.90
54168;DHT22;68429;50.958;3.592;2024-02-15T01:50:24;12.90;99.90
54168;DHT22;68429;50.958;3.592;2024-02-15T01:52:54;12.90;99.90
54168;DHT22;68429;50.958;3.592;2024-02-15T01:55:22;12.80;99.90
54168;DHT22;68429;50.958;3.592;2024-02-15T02:07:59;12.50;99.90
54168;DHT22;68429;50.958;3.592;2024-02-15T02:11:10;12.50;99.90
54168;DHT22;68429;50.958;3.592;2024-02-15T02:38:27;12.50;99.90
54168;DHT22;68429;50.958;3.592;2024-02-15T02:41:20;12.40;99.90
54168;DHT22;68429;50.958;3.592;2024-02-15T02:50:50;12.00;99.90
54168;DHT22;68429;50.958;3.592;2024-02-15T02:53:19;12.10;99.90
54168;DHT22;68429;50.958;3.592;2024-02-15T02:55:45;12.10;99.90
54168;DHT22;68429;50.958;3.592;2024-02-15T02:58:11;12.20;99.90
54168;DHT22;68429;50.958;3.592;2024-02-15T03:00:37;12.10;99.90
54168;DHT22;68429;50.958;3.592;2024-02-15T03:03:05;12.10;99.90
54168;DHT22;68429;50.958;3.592;2024-02-15T03:05:31;12.10;99.90
54168;DHT22;68429;50.958;3.592;2024-02-15T03:07:57;12.10;99.90
54168;DHT22;68429;50.958;3.592;2024-02-15T03:10:23;12.10;99.90
54168;DHT22;68429;50.958;3.592;2024-02-15T03:13:09;12.20;99.90
54168;DHT22;68429;50.958;3.592;2024-02-15T03:15:35;12.20;99.90
54168;DHT22;68429;50.958;3.592;2024-02-15T03:18:04;12.20;99.90
54168;DHT22;68429;50.958;3.592;2024-02-15T03:20:33;12.20;99.90
54168;DHT22;68429;50.958;3.592;2024-02-15T03:23:01;12.30;99.90
54168;DHT22;68429;50.958;3.592;2024-02-15T03:25:28;12.20;99.90
54168;DHT22;68429;50.958;3.592;2024-02-15T03:28:02;12.10;99.90
54168;DHT22;68429;50.958;3.592;2024-02-15T03:30:31;12.10;99.90
54168;DHT22;68429;50.958;3.592;2024-02-15T03:33:05;12.10;99.90
54168;DHT22;68429;50.958;3.592;2024-02-15T03:35:31;12.20;99.90
54168;DHT22;68429;50.958;3.592;2024-02-15T03:37:57;12.10;99.90
54168;DHT22;68429;50.958;3.592;2024-02-15T03:40:24;12.20;99.90
54168;DHT22;68429;50.958;3.592;2024-02-15T03:42:53;12.20;99.90
54168;DHT22;68429;50.958;3.592;2024-02-15T03:45:19;12.20;99.90
54168;DHT22;68429;50.958;3.592;2024-02-15T03:47:46;12.20;99.90
54168;DHT22;68429;50.958;3.592;2024-02-15T03:50:12;12.20;99.90
54168;DHT22;68429;50.958;3.592;2024-02-15T03:52:40;12.20;99.90
54168;DHT22;68429;50.958;3.592;2024-02-15T03:55:07;12.20;99.90
54168;DHT22;68429;50.958;3.592;2024-02-15T03:57:33;12.10;99.90
54168;DHT22;68429;50.958;3.592;2024-02-15T03:59:59;12.20;99.90
54168;DHT22;68429;50.958;3.592;2024-02-15T04:02:26;12.20;99.90
54168;DHT22;68429;50.958;3.592;2024-02-15T04:04:56;12.40;99.90
54168;DHT22;68429;50.958;3.592;2024-02-15T04:07:22;12.40;99.90
54168;DHT22;68429;50.958;3.592;2024-02-15T04:09:53;12.30;99.90
54168;DHT22;68429;50.958;3.592;2024-02-15T04:12:19;12.30;99.90
54168;DHT22;68429;50.958;3.592;2024-02-15T04:14:48;12.30;99.90
54168;DHT22;68429;50.958;3.592;2024-02-15T04:17:15;12.30;99.90
54168;DHT22;68429;50.958;3.592;2024-02-15T04:19:48;12.30;99.90
54168;DHT22;68429;50.958;3.592;2024-02-15T04:22:25;12.30;99.90
54168;DHT22;68429;50.958;3.592;2024-02-15T04:25:16;12.30;99.90
54168;DHT22;68429;50.958;3.592;2024-02-15T04:27:44;12.40;99.90
54168;DHT22;68429;50.958;3.592;2024-02-15T04:30:12;12.30;99.90
54168;DHT22;68429;50.958;3.592;2024-02-15T04:32:38;12.20;99.90
54168;DHT22;68429;50.958;3.592;2024-02-15T04:35:04;12.20;99.90
54168;DHT22;68429;50.958;3.592;2024-02-15T04:37:33;12.30;99.90
54168;DHT22;68429;50.958;3.592;2024-02-15T04:40:00;12.20;99.90
54168;DHT22;68429;50.958;3.592;2024-02-15T04:42:33;12.30;99.90
54168;DHT22;68429;50.958;3.592;2024-02-15T04:45:00;12.30;99.90
54168;DHT22;68429;50.958;3.592;2024-02-15T04:47:26;12.30;99.90
54168;DHT22;68429;50.958;3.592;2024-02-15T04:49:52;12.30;99.90
54168;DHT22;68429;50.958;3.592;2024-02-15T04:52:18;12.40;99.90
54168;DHT22;68429;50.958;3.592;2024-02-15T04:54:49;12.40;99.90
54168;DHT22;68429;50.958;3.592;2024-02-15T04:57:15;12.50;99.90
54168;DHT22;68429;50.958;3.592;2024-02-15T04:59:42;12.60;99.90
54168;DHT22;68429;50.958;3.592;2024-02-15T05:02:13;12.60;99.90
54168;DHT22;68429;50.958;3.592;2024-02-15T05:04:39;12.50;99.90
54168;DHT22;68429;50.958;3.592;2024-02-15T05:07:08;12.60;99.90
54168;DHT22;68429;50.958;3.592;2024-02-15T05:09:34;12.60;99.90
54168;DHT22;68429;50.958;3.592;2024-02-15T05:12:01;12.60;99.90
54168;DHT22;68429;50.958;3.592;2024-02-15T05:14:31;12.40;99.90
54168;DHT22;68429;50.958;3.592;2024-02-15T05:16:57;12.40;99.90
54168;DHT22;68429;50.958;3.592;2024-02-15T05:19:23;12.40;99.90
54168;DHT22;68429;50.958;3.592;2024-02-15T05:21:49;12.40;99.90
54168;DHT22;68429;50.958;3.592;2024-02-15T05:24:16;12.30;99.90
54168;DHT22;68429;50.958;3.592;2024-02-15T05:26:45;12.40;99.90
54168;DHT22;68429;50.958;3.592;2024-02-15T05:29:17;12.50;99.90
54168;DHT22;68429;50.958;3.592;2024-02-15T05:31:46;12.50;99.90
54168;DHT22;68429;50.958;3.592;2024-02-15T05:34:12;12.60;99.90
54168;DHT22;68429;50.958;3.592;2024-02-15T05:36:44;12.60;99.90
54168;DHT22;68429;50.958;3.592;2024-02-15T05:39:10;12.60;99.90
54168;DHT22;68429;50.958;3.592;2024-02-15T05:41:48;12.70;99.90
54168;DHT22;68429;50.958;3.592;2024-02-15T05:44:17;12.70;99.90
54168;DHT22;68429;50.958;3.592;2024-02-15T05:47:04;12.70;99.90
54168;DHT22;68429;50.958;3.592;2024-02-15T05:50:05;12.70;99.90
54168;DHT22;68429;50.958;3.592;2024-02-15T05:52:37;12.70;99.90
54168;DHT22;68429;50.958;3.592;2024-02-15T05:55:12;12.80;99.90
54168;DHT22;68429;50.958;3.592;2024-02-15T05:57:45;12.90;99.90
54168;DHT22;68429;50.958;3.592;2024-02-15T06:00:14;13.00;99.90
54168;DHT22;68429;50.958;3.592;2024-02-15T06:03:04;12.80;99.90
54168;DHT22;68429;50.958;3.592;2024-02-15T06:05:43;13.10;99.90
54168;DHT22;68429;50.958;3.592;2024-02-15T06:08:27;13.00;99.90
54168;DHT22;68429;50.958;3.592;2024-02-15T06:10:55;12.90;99.90
54168;DHT22;68429;50.958;3.592;2024-02-15T06:13:26;12.90;99.90
54168;DHT22;68429;50.958;3.592;2024-02-15T06:15:52;12.80;99.90
54168;DHT22;68429;50.958;3.592;2024-02-15T06:18:27;12.80;99.90
54168;DHT22;68429;50.958;3.592;2024-02-15T06:20:58;12.80;99.90
54168;DHT22;68429;50.958;3.592;2024-02-15T06:23:25;12.80;99.90
54168;DHT22;68429;50.958;3.592;2024-02-15T06:25:54;12.80;99.90
54168;DHT22;68429;50.958;3.592;2024-02-15T06:28:20;12.80;99.90
54168;DHT22;68429;50.958;3.592;2024-02-15T06:31:09;12.80;99.90
54168;DHT22;68429;50.958;3.592;2024-02-15T06:33:54;12.90;99.90
54168;DHT22;68429;50.958;3.592;2024-02-15T06:36:47;12.90;99.90
54168;DHT22;68429;50.958;3.592;2024-02-15T06:39:33;12.90;99.90
54168;DHT22;68429;50.958;3.592;2024-02-15T06:42:15;12.90;99.90
54168;DHT22;68429;50.958;3.592;2024-02-15T06:44:44;12.80;99.90
54168;DHT22;68429;50.958;3.592;2024-02-15T06:47:10;12.90;99.90
54168;DHT22;68429;50.958;3.592;2024-02-15T06:49:39;12.90;99.90
54168;DHT22;68429;50.958;3.592;2024-02-15T06:52:10;12.80;99.90
54168;DHT22;68429;50.958;3.592;2024-02-15T06:54:40;12.80;99.90
54168;DHT22;68429;50.958;3.592;2024-02-15T06:57:06;12.80;99.90
54168;DHT22;68429;50.958;3.592;2024-02-15T06:59:33;12.90;99.90
54168;DHT22;68429;50.958;3.592;2024-02-15T07:02:00;12.80;99.90
54168;DHT22;68429;50.958;3.592;2024-02-15T07:04:27;12.80;99.90
54168;DHT22;68429;50.958;3.592;2024-02-15T07:06:53;12.70;99.90
54168;DHT22;68429;50.958;3.592;2024-02-15T07:09:22;12.60;99.90
54168;DHT22;68429;50.958;3.592;2024-02-15T07:11:50;12.50;99.90
54168;DHT22;68429;50.958;3.592;2024-02-15T07:14:17;12.50;99.90
54168;DHT22;68429;50.958;3.592;2024-02-15T07:16:47;12.40;99.90
54168;DHT22;68429;50.958;3.592;2024-02-15T07:19:13;12.40;99.90
54168;DHT22;68429;50.958;3.592;2024-02-15T07:21:40;12.40;99.90
54168;DHT22;68429;50.958;3.592;2024-02-15T07:24:06;12.40;99.90
54168;DHT22;68429;50.958;3.592;2024-02-15T07:26:32;12.30;99.90
54168;DHT22;68429;50.958;3.592;2024-02-15T07:29:00;12.30;99.90
54168;DHT22;68429;50.958;3.592;2024-02-15T07:31:30;12.30;99.90
54168;DHT22;68429;50.958;3.592;2024-02-15T07:33:56;12.30;99.90
54168;DHT22;68429;50.958;3.592;2024-02-15T07:36:23;12.20;99.90
54168;DHT22;68429;50.958;3.592;2024-02-15T07:38:53;12.20;99.90
54168;DHT22;68429;50.958;3.592;2024-02-15T07:41:22;12.10;99.90
54168;DHT22;68429;50.958;3.592;2024-02-15T07:43:48;12.00;99.90
54168;DHT22;68429;50.958;3.592;2024-02-15T07:46:15;11.90;99.90
54168;DHT22;68429;50.958;3.592;2024-02-15T07:48:42;11.90;99.90
54168;DHT22;68429;50.958;3.592;2024-02-15T07:51:21;11.80;99.90
54168;DHT22;68429;50.958;3.592;2024-02-15T07:53:48;11.80;99.90
54168;DHT22;68429;50.958;3.592;2024-02-15T07:56:17;11.70;99.90
54168;DHT22;68429;50.958;3.592;2024-02-15T07:58:47;11.70;99.90
54168;DHT22;68429;50.958;3.592;2024-02-15T08:01:14;11.60;99.90
54168;DHT22;68429;50.958;3.592;2024-02-15T08:03:42;11.60;99.90
54168;DHT22;68429;50.958;3.592;2024-02-15T08:06:12;11.70;99.90
54168;DHT22;68429;50.958;3.592;2024-02-15T08:08:39;11.80;99.90
54168;DHT22;68429;50.958;3.592;2024-02-15T08:11:12;11.90;99.90
54168;DHT22;68429;50.958;3.592;2024-02-15T08:13:46;11.90;99.90
54168;DHT22;68429;50.958;3.592;2024-02-15T08:16:22;11.90;99.90
54168;DHT22;68429;50.958;3.592;2024-02-15T08:18:49;11.90;99.90
54168;DHT22;68429;50.958;3.592;2024-02-15T08:21:18;11.80;99.90
54168;DHT22;68429;50.958;3.592;2024-02-15T08:23:50;11.90;99.90
54168;DHT22;68429;50.958;3.592;2024-02-15T08:26:16;12.10;99.90
54168;DHT22;68429;50.958;3.592;2024-02-15T08:28:42;12.20;99.90
54168;DHT22;68429;50.958;3.592;2024-02-15T08:31:32;12.30;99.90
54168;DHT22;68429;50.958;3.592;2024-02-15T08:53:22;13.10;99.90
54168;DHT22;68429;50.958;3.592;2024-02-15T08:55:59;13.30;99.90
54168;DHT22;68429;50.958;3.592;2024-02-15T09:22:34;13.60;99.90
54168;DHT22;68429;50.958;3.592;2024-02-15T09:25:03;13.40;99.90
54168;DHT22;68429;50.958;3.592;2024-02-15T09:27:32;13.60;99.90
54168;DHT22;68429;50.958;3.592;2024-02-15T09:30:30;13.70;99.90
54168;DHT22;68429;50.958;3.592;2024-02-15T09:33:03;13.70;99.90
54168;DHT22;68429;50.958;3.592;2024-02-15T09:35:50;13.80;99.90
54168;DHT22;68429;50.958;3.592;2024-02-15T09:38:25;13.70;99.90
54168;DHT22;68429;50.958;3.592;2024-02-15T09:41:21;13.70;99.90
54168;DHT22;68429;50.958;3.592;2024-02-15T09:43:47;13.70;99.90
54168;DHT22;68429;50.958;3.592;2024-02-15T09:46:13;13.80;99.90
54168;DHT22;68429;50.958;3.592;2024-02-15T09:48:39;13.80;99.90
54168;DHT22;68429;50.958;3.592;2024-02-15T09:51:07;14.00;99.90
54168;DHT22;68429;50.958;3.592;2024-02-15T09:53:34;14.30;99.90
54168;DHT22;68429;50.958;3.592;2024-02-15T09:56:00;14.60;99.90
54168;DHT22;68429;50.958;3.592;2024-02-15T09:58:30;14.70;99.90
54168;DHT22;68429;50.958;3.592;2024-02-15T10:01:01;14.90;99.90
54168;DHT22;68429;50.958;3.592;2024-02-15T10:03:33;14.80;99.90
54168;DHT22;68429;50.958;3.592;2024-02-15T10:06:00;14.90;99.90
54168;DHT22;68429;50.958;3.592;2024-02-15T10:08:29;15.20;99.90
54168;DHT22;68429;50.958;3.592;2024-02-15T10:11:15;15.20;99.90
54168;DHT22;68429;50.958;3.592;2024-02-15T10:13:41;15.60;99.90
54168;DHT22;68429;50.958;3.592;2024-02-15T10:16:17;15.80;99.90
54168;DHT22;68429;50.958;3.592;2024-02-15T10:18:44;16.10;99.90
54168;DHT22;68429;50.958;3.592;2024-02-15T10:21:24;16.90;99.90
54168;DHT22;68429;50.958;3.592;2024-02-15T10:24:01;18.00;99.90
54168;DHT22;68429;50.958;3.592;2024-02-15T10:26:30;19.00;99.90
54168;DHT22;68429;50.958;3.592;2024-02-15T10:29:11;18.90;99.90
54168;DHT22;68429;50.958;3.592;2024-02-15T10:35:42;19.80;99.90
54168;DHT22;68429;50.958;3.592;2024-02-15T10:41:56;22.80;99.90
54168;DHT22;68429;50.958;3.592;2024-02-15T10:44:24;23.40;98.60
54168;DHT22;68429;50.958;3.592;2024-02-15T11:01:11;22.10;98.70
54168;DHT22;68429;50.958;3.592;2024-02-15T11:04:07;21.80;98.30
54168;DHT22;68429;50.958;3.592;2024-02-15T11:06:35;20.60;99.60
54168;DHT22;68429;50.958;3.592;2024-02-15T11:09:05;19.60;99.90
54168;DHT22;68429;50.958;3.592;2024-02-15T11:11:33;19.50;99.90
54168;DHT22;68429;50.958;3.592;2024-02-15T11:14:23;19.50;99.90
54168;DHT22;68429;50.958;3.592;2024-02-15T11:16:49;19.50;99.90
54168;DHT22;68429;50.958;3.592;2024-02-15T11:22:01;19.60;99.90
54168;DHT22;68429;50.958;3.592;2024-02-15T11:24:30;19.60;99.90
54168;DHT22;68429;50.958;3.592;2024-02-15T11:27:05;19.60;99.90
54168;DHT22;68429;50.958;3.592;2024-02-15T11:29:54;19.90;99.90
54168;DHT22;68429;50.958;3.592;2024-02-15T11:32:50;20.10;99.90
54168;DHT22;68429;50.958;3.592;2024-02-15T11:35:23;20.40;99.90
54168;DHT22;68429;50.958;3.592;2024-02-15T11:46:16;19.90;99.90
54168;DHT22;68429;50.958;3.592;2024-02-15T11:48:48;19.50;99.90
54168;DHT22;68429;50.958;3.592;2024-02-15T11:51:32;19.20;99.90
54168;DHT22;68429;50.958;3.592;2024-02-15T11:54:11;19.00;99.90
54168;DHT22;68429;50.958;3.592;2024-02-15T11:59:10;18.70;99.90
54168;DHT22;68429;50.958;3.592;2024-02-15T12:01:44;18.80;99.90
54168;DHT22;68429;50.958;3.592;2024-02-15T12:04:32;18.80;99.90
54168;DHT22;68429;50.958;3.592;2024-02-15T12:07:16;18.70;99.90
54168;DHT22;68429;50.958;3.592;2024-02-15T12:10:01;18.90;99.90
54168;DHT22;68429;50.958;3.592;2024-02-15T12:12:52;19.20;99.90
54168;DHT22;68429;50.958;3.592;2024-02-15T12:15:36;19.40;99.90
54168;DHT22;68429;50.958;3.592;2024-02-15T12:18:20;19.30;99.90
54168;DHT22;68429;50.958;3.592;2024-02-15T12:21:08;19.10;99.90
54168;DHT22;68429;50.958;3.592;2024-02-15T12:23:38;19.00;99.90
54168;DHT22;68429;50.958;3.592;2024-02-15T12:26:06;18.90;99.90
54168;DHT22;68429;50.958;3.592;2024-02-15T12:28:33;18.80;99.90
54168;DHT22;68429;50.958;3.592;2024-02-15T12:31:02;18.80;99.90
54168;DHT22;68429;50.958;3.592;2024-02-15T12:33:28;18.80;99.90
54168;DHT22;68429;50.958;3.592;2024-02-15T12:36:05;18.90;99.90
54168;DHT22;68429;50.958;3.592;2024-02-15T12:38:31;19.10;99.90
54168;DHT22;68429;50.958;3.592;2024-02-15T12:41:00;19.30;99.90
54168;DHT22;68429;50.958;3.592;2024-02-15T12:43:28;19.50;99.90
54168;DHT22;68429;50.958;3.592;2024-02-15T12:45:54;19.80;99.90
54168;DHT22;68429;50.958;3.592;2024-02-15T12:48:22;19.90;99.90
54168;DHT22;68429;50.958;3.592;2024-02-15T12:50:48;19.90;99.90
54168;DHT22;68429;50.958;3.592;2024-02-15T12:53:22;19.70;99.90
54168;DHT22;68429;50.958;3.592;2024-02-15T12:55:54;19.50;99.90
54168;DHT22;68429;50.958;3.592;2024-02-15T12:58:21;19.40;99.90
54168;DHT22;68429;50.958;3.592;2024-02-15T13:00:50;19.50;99.90
54168;DHT22;68429;50.958;3.592;2024-02-15T13:03:21;19.40;99.90
54168;DHT22;68429;50.958;3.592;2024-02-15T13:05:47;19.40;99.90
54168;DHT22;68429;50.958;3.592;2024-02-15T13:08:15;19.50;99.90
54168;DHT22;68429;50.958;3.592;2024-02-15T13:10:46;19.50;99.90
54168;DHT22;68429;50.958;3.592;2024-02-15T13:13:13;19.60;99.90
54168;DHT22;68429;50.958;3.592;2024-02-15T13:15:42;19.80;99.90
54168;DHT22;68429;50.958;3.592;2024-02-15T13:18:09;19.90;99.90
54168;DHT22;68429;50.958;3.592;2024-02-15T13:20:37;20.20;99.90
54168;DHT22;68429;50.958;3.592;2024-02-15T13:23:07;20.40;99.90
54168;DHT22;68429;50.958;3.592;2024-02-15T13:25:55;20.80;99.90
54168;DHT22;68429;50.958;3.592;2024-02-15T13:28:42;20.60;99.90
54168;DHT22;68429;50.958;3.592;2024-02-15T13:31:09;20.50;99.90
54168;DHT22;68429;50.958;3.592;2024-02-15T13:33:38;19.80;99.90
54168;DHT22;68429;50.958;3.592;2024-02-15T13:36:04;19.50;99.90
54168;DHT22;68429;50.958;3.592;2024-02-15T13:38:32;19.30;99.90
54168;DHT22;68429;50.958;3.592;2024-02-15T13:41:02;18.90;99.90
54168;DHT22;68429;50.958;3.592;2024-02-15T13:43:29;18.70;99.90
54168;DHT22;68429;50.958;3.592;2024-02-15T13:45:56;18.60;99.90
54168;DHT22;68429;50.958;3.592;2024-02-15T13:48:22;18.50;99.90
54168;DHT22;68429;50.958;3.592;2024-02-15T13:51:01;18.40;99.90
54168;DHT22;68429;50.958;3.592;2024-02-15T13:53:27;18.30;99.90
54168;DHT22;68429;50.958;3.592;2024-02-15T13:55:54;18.30;99.90
54168;DHT22;68429;50.958;3.592;2024-02-15T13:58:20;18.50;99.90
54168;DHT22;68429;50.958;3.592;2024-02-15T14:01:05;18.60;99.90
54168;DHT22;68429;50.958;3.592;2024-02-15T14:03:32;18.70;99.90
54168;DHT22;68429;50.958;3.592;2024-02-15T14:06:00;18.90;99.90
54168;DHT22;68429;50.958;3.592;2024-02-15T14:08:26;18.80;99.90
54168;DHT22;68429;50.958;3.592;2024-02-15T14:10:52;18.70;99.90
54168;DHT22;68429;50.958;3.592;2024-02-15T14:13:18;18.70;99.90
54168;DHT22;68429;50.958;3.592;2024-02-15T14:15:44;18.60;99.90
54168;DHT22;68429;50.958;3.592;2024-02-15T14:18:12;18.70;99.90
54168;DHT22;68429;50.958;3.592;2024-02-15T14:20:46;18.70;99.90
54168;DHT22;68429;50.958;3.592;2024-02-15T14:23:15;18.70;99.90
54168;DHT22;68429;50.958;3.592;2024-02-15T14:25:41;18.60;99.90
54168;DHT22;68429;50.958;3.592;2024-02-15T14:28:07;18.70;99.90
54168;DHT22;68429;50.958;3.592;2024-02-15T14:30:45;18.80;99.90
54168;DHT22;68429;50.958;3.592;2024-02-15T14:33:30;19.10;99.90
54168;DHT22;68429;50.958;3.592;2024-02-15T14:35:58;19.50;99.90
54168;DHT22;68429;50.958;3.592;2024-02-15T14:38:27;19.80;99.90
54168;DHT22;68429;50.958;3.592;2024-02-15T14:40:53;19.70;99.90
54168;DHT22;68429;50.958;3.592;2024-02-15T14:43:28;19.60;99.90
54168;DHT22;68429;50.958;3.592;2024-02-15T14:45:57;19.70;99.90
54168;DHT22;68429;50.958;3.592;2024-02-15T14:48:23;19.90;99.90
54168;DHT22;68429;50.958;3.592;2024-02-15T14:50:49;19.90;99.90
54168;DHT22;68429;50.958;3.592;2024-02-15T14:53:16;19.70;99.90
54168;DHT22;68429;50.958;3.592;2024-02-15T14:55:43;19.50;99.90
54168;DHT22;68429;50.958;3.592;2024-02-15T14:58:12;19.10;99.90
54168;DHT22;68429;50.958;3.592;2024-02-15T15:00:39;19.10;99.90
54168;DHT22;68429;50.958;3.592;2024-02-15T15:03:07;19.10;99.90
54168;DHT22;68429;50.958;3.592;2024-02-15T15:05:36;18.90;99.90
54168;DHT22;68429;50.958;3.592;2024-02-15T15:08:20;18.80;99.90
54168;DHT22;68429;50.958;3.592;2024-02-15T15:14:09;18.50;99.90
54168;DHT22;68429;50.958;3.592;2024-02-15T15:16:35;18.40;99.90
54168;DHT22;68429;50.958;3.592;2024-02-15T15:19:00;18.30;99.90
54168;DHT22;68429;50.958;3.592;2024-02-15T15:21:27;18.10;99.90
54168;DHT22;68429;50.958;3.592;2024-02-15T15:23:53;18.10;99.90
54168;DHT22;68429;50.958;3.592;2024-02-15T15:26:20;18.10;99.90
54168;DHT22;68429;50.958;3.592;2024-02-15T15:28:46;17.90;99.90
54168;DHT22;68429;50.958;3.592;2024-02-15T15:31:15;17.90;99.90
54168;DHT22;68429;50.958;3.592;2024-02-15T15:33:41;17.80;99.90
54168;DHT22;68429;50.958;3.592;2024-02-15T15:36:07;17.90;99.90
54168;DHT22;68429;50.958;3.592;2024-02-15T15:38:33;17.70;99.90
54168;DHT22;68429;50.958;3.592;2024-02-15T15:40:59;17.60;99.90
54168;DHT22;68429;50.958;3.592;2024-02-15T15:43:30;17.40;99.90
54168;DHT22;68429;50.958;3.592;2024-02-15T15:46:06;17.30;99.90
54168;DHT22;68429;50.958;3.592;2024-02-15T15:48:41;17.20;99.90
54168;DHT22;68429;50.958;3.592;2024-02-15T15:51:07;17.10;99.90
54168;DHT22;68429;50.958;3.592;2024-02-15T15:53:35;17.00;99.90
54168;DHT22;68429;50.958;3.592;2024-02-15T15:56:01;16.90;99.90
54168;DHT22;68429;50.958;3.592;2024-02-15T15:58:27;16.70;99.90
54168;DHT22;68429;50.958;3.592;2024-02-15T16:00:53;16.70;99.90
54168;DHT22;68429;50.958;3.592;2024-02-15T16:03:19;16.70;99.90
54168;DHT22;68429;50.958;3.592;2024-02-15T16:05:50;16.60;99.90
54168;DHT22;68429;50.958;3.592;2024-02-15T16:08:17;16.60;99.90
54168;DHT22;68429;50.958;3.592;2024-02-15T16:10:43;16.60;99.90
54168;DHT22;68429;50.958;3.592;2024-02-15T16:13:12;16.60;99.90
54168;DHT22;68429;50.958;3.592;2024-02-15T16:15:38;16.50;99.90
54168;DHT22;68429;50.958;3.592;2024-02-15T16:18:06;16.40;99.90
54168;DHT22;68429;50.958;3.592;2024-02-15T16:20:33;16.30;99.90
54168;DHT22;68429;50.958;3.592;2024-02-15T16:23:08;16.30;99.90
54168;DHT22;68429;50.958;3.592;2024-02-15T16:25:34;16.30;99.90
54168;DHT22;68429;50.958;3.592;2024-02-15T16:27:59;16.30;99.90
54168;DHT22;68429;50.958;3.592;2024-02-15T16:30:28;16.20;99.90
54168;DHT22;68429;50.958;3.592;2024-02-15T16:35:45;16.20;99.90
54168;DHT22;68429;50.958;3.592;2024-02-15T16:38:11;16.10;99.90
54168;DHT22;68429;50.958;3.592;2024-02-15T16:40:36;16.10;99.90
54168;DHT22;68429;50.958;3.592;2024-02-15T16:43:02;16.00;99.90
54168;DHT22;68429;50.958;3.592;2024-02-15T16:45:30;16.00;99.90
54168;DHT22;68429;50.958;3.592;2024-02-15T16:47:55;16.00;99.90
54168;DHT22;68429;50.958;3.592;2024-02-15T16:50:25;16.00;99.90
54168;DHT22;68429;50.958;3.592;2024-02-15T16:52:50;15.90;99.90
54168;DHT22;68429;50.958;3.592;2024-02-15T16:55:17;16.00;99.90
54168;DHT22;68429;50.958;3.592;2024-02-15T16:57:52;15.80;99.90
54168;DHT22;68429;50.958;3.592;2024-02-15T17:00:21;15.80;99.90
54168;DHT22;68429;50.958;3.592;2024-02-15T17:02:48;15.70;99.90
54168;DHT22;68429;50.958;3.592;2024-02-15T17:05:13;15.80;99.90
54168;DHT22;68429;50.958;3.592;2024-02-15T17:07:39;15.80;99.90
54168;DHT22;68429;50.958;3.592;2024-02-15T17:10:06;15.70;99.90
54168;DHT22;68429;50.958;3.592;2024-02-15T17:12:32;15.70;99.90
54168;DHT22;68429;50.958;3.592;2024-02-15T17:14:59;15.70;99.90
54168;DHT22;68429;50.958;3.592;2024-02-15T17:17:25;15.60;99.90
54168;DHT22;68429;50.958;3.592;2024-02-15T17:19:51;15.50;99.90
54168;DHT22;68429;50.958;3.592;2024-02-15T17:22:16;15.50;99.90
54168;DHT22;68429;50.958;3.592;2024-02-15T17:24:42;15.50;99.90
54168;DHT22;68429;50.958;3.592;2024-02-15T17:27:09;15.40;99.90
54168;DHT22;68429;50.958;3.592;2024-02-15T17:29:34;15.40;99.90
54168;DHT22;68429;50.958;3.592;2024-02-15T17:32:00;15.50;99.90
54168;DHT22;68429;50.958;3.592;2024-02-15T17:34:26;15.30;99.90
54168;DHT22;68429;50.958;3.592;2024-02-15T17:36:58;15.20;99.90
54168;DHT22;68429;50.958;3.592;2024-02-15T17:39:24;15.20;99.90
54168;DHT22;68429;50.958;3.592;2024-02-15T17:41:49;15.30;99.90
54168;DHT22;68429;50.958;3.592;2024-02-15T17:44:16;15.30;99.90
54168;DHT22;68429;50.958;3.592;2024-02-15T17:46:43;15.20;99.90
54168;DHT22;68429;50.958;3.592;2024-02-15T17:49:08;15.20;99.90
54168;DHT22;68429;50.958;3.592;2024-02-15T17:51:37;15.20;99.90
54168;DHT22;68429;50.958;3.592;2024-02-15T17:54:06;15.20;99.90
54168;DHT22;68429;50.958;3.592;2024-02-15T17:56:32;15.30;99.90
54168;DHT22;68429;50.958;3.592;2024-02-15T17:58:58;15.30;99.90
54168;DHT22;68429;50.958;3.592;2024-02-15T18:01:24;15.30;99.90